Time;durP1;ratioP1;P1;durP2;ratioP2;P2;SDS_P1;SDS_P2;PMS_P1;PMS_P2;Temp;Humidity;BMP_temperature;BMP_pressure;BME280_temperature;BME280_humidity;BME280_pressure;Samples;Min_cycle;Max_cycle;Signal;HPM_P1;HPM_P2
2023/02/02 00:01:51;;;;;;;10.37;2.80;;;;;;;3.38;100.00;99824.91;4972039;28;20060;-80
2023/02/02 00:04:20;;;;;;;13.23;3.42;;;;;;;3.47;100.00;99792.66;4979835;28;20050;-79
2023/02/02 00:06:47;;;;;;;12.20;2.80;;;;;;;3.39;100.00;99805.75;5014385;28;20059;-79
2023/02/02 00:09:18;;;;;;;9.90;4.43;;;;;;;3.46;100.00;99796.13;4993888;28;20041;-81
2023/02/02 00:11:46;;;;;;;9.93;2.60;;;;;;;3.45;100.00;99800.50;4981093;28;20042;-81
2023/02/02 00:14:13;;;;;;;16.30;4.20;;;;;;;3.48;100.00;99799.59;4998070;28;20648;-80
2023/02/02 00:16:42;;;;;;;10.83;3.57;;;;;;;3.46;100.00;99791.78;4981801;28;20043;-81
2023/02/02 00:19:21;;;;;;;10.13;2.53;;;;;;;3.45;100.00;99786.53;4982155;28;20061;-79
2023/02/02 00:21:52;;;;;;;13.60;3.27;;;;;;;3.41;100.00;99790.91;4983355;28;20060;-79
2023/02/02 00:24:19;;;;;;;11.97;3.07;;;;;;;3.42;100.00;99786.56;4998693;28;20060;-86
2023/02/02 00:26:54;;;;;;;12.53;3.13;;;;;;;3.47;100.00;99798.72;4997170;28;20041;-85
2023/02/02 00:29:23;;;;;;;16.37;3.80;;;;;;;3.46;100.00;99810.06;4999856;28;20467;-83
2023/02/02 00:31:50;;;;;;;14.87;5.33;;;;;;;3.50;100.00;99801.31;4980494;28;20046;-84
2023/02/02 00:34:18;;;;;;;16.23;3.63;;;;;;;3.50;100.00;99792.63;4980098;28;20042;-84
2023/02/02 00:36:45;;;;;;;11.13;4.07;;;;;;;3.50;100.00;99788.25;5008663;28;20457;-84
2023/02/02 00:39:18;;;;;;;13.00;3.13;;;;;;;3.48;100.00;99790.03;4983331;28;20130;-83
2023/02/02 00:41:45;;;;;;;14.03;3.70;;;;;;;3.48;100.00;99784.78;4983634;28;20514;-83
2023/02/02 00:46:58;;;;;;;10.90;3.40;;;;;;;3.42;100.00;99786.56;5002123;28;20049;-83
2023/02/02 00:49:24;;;;;;;9.97;3.50;;;;;;;3.42;100.00;99797.00;4983468;28;20072;-84
2023/02/02 00:51:51;;;;;;;13.13;2.90;;;;;;;3.42;100.00;99800.50;4983124;28;20033;-85
2023/02/02 00:54:18;;;;;;;15.43;3.33;;;;;;;3.41;100.00;99788.31;4983432;28;20103;-83
2023/02/02 00:56:45;;;;;;;13.53;3.70;;;;;;;3.48;100.00;99781.31;4988636;28;20794;-83
2023/02/02 00:59:12;;;;;;;15.97;3.47;;;;;;;3.49;100.00;99796.97;4989086;28;20400;-83
2023/02/02 01:01:39;;;;;;;13.83;3.97;;;;;;;3.42;100.00;99800.50;4968085;28;20137;-84
2023/02/02 01:04:06;;;;;;;15.40;3.43;;;;;;;3.49;100.00;99830.06;4998986;28;20037;-85
2023/02/02 01:06:32;;;;;;;9.87;2.90;;;;;;;3.46;100.00;99815.28;4979853;28;20509;-82
2023/02/02 01:08:59;;;;;;;10.80;3.23;;;;;;;3.51;100.00;99808.28;4982544;28;20044;-82
2023/02/02 01:11:26;;;;;;;10.07;3.00;;;;;;;3.49;100.00;99817.00;4979172;28;20042;-84
2023/02/02 01:13:53;;;;;;;11.20;3.00;;;;;;;3.49;100.00;99835.28;4963749;28;20046;-82
2023/02/02 01:16:21;;;;;;;13.43;2.70;;;;;;;3.50;100.00;99808.28;4978399;28;20060;-84
2023/02/02 01:18:49;;;;;;;9.37;2.73;;;;;;;3.55;100.00;99812.63;4967662;28;20116;-85
2023/02/02 01:21:16;;;;;;;7.67;2.43;;;;;;;3.47;100.00;99803.97;4963645;28;20100;-83
2023/02/02 01:23:43;;;;;;;11.23;2.50;;;;;;;3.50;100.00;99819.59;4973509;28;20458;-82
2023/02/02 01:26:11;;;;;;;11.60;2.63;;;;;;;3.53;100.00;99819.59;4997684;28;20042;-84
2023/02/02 01:28:38;;;;;;;6.63;2.57;;;;;;;3.56;100.00;99824.78;4982843;28;20041;-84
2023/02/02 01:31:13;;;;;;;8.63;3.13;;;;;;;3.52;100.00;99811.75;4998974;28;20047;-84
2023/02/02 01:33:41;;;;;;;11.43;2.90;;;;;;;3.59;100.00;99811.72;4982666;28;20054;-82
2023/02/02 01:36:11;;;;;;;7.60;2.93;;;;;;;3.55;100.00;99806.53;4979030;28;20046;-83
2023/02/02 01:38:37;;;;;;;11.87;2.93;;;;;;;3.62;100.00;99826.50;4978175;28;20087;-83
2023/02/02 01:41:05;;;;;;;13.43;3.27;;;;;;;3.67;100.00;99829.94;4982509;28;20667;-82
2023/02/02 01:43:41;;;;;;;20.90;4.27;;;;;;;3.60;100.00;99830.84;4982131;28;20045;-86
2023/02/02 01:46:13;;;;;;;8.67;2.90;;;;;;;3.64;100.00;99837.81;5012503;28;20041;-82
2023/02/02 01:48:42;;;;;;;11.40;2.37;;;;;;;3.69;100.00;99836.03;4981958;28;20487;-82
2023/02/02 01:51:14;;;;;;;12.17;3.00;;;;;;;3.71;100.00;99880.44;5014122;28;20060;-84
2023/02/02 01:53:41;;;;;;;10.53;2.90;;;;;;;3.75;100.00;99856.91;4998217;28;20049;-84
2023/02/02 01:56:09;;;;;;;8.30;2.13;;;;;;;3.75;100.00;99842.97;4981950;28;20037;-86
2023/02/02 01:58:38;;;;;;;6.63;2.73;;;;;;;3.83;100.00;99849.00;4981505;28;20392;-83
2023/02/02 02:01:05;;;;;;;10.17;2.40;;;;;;;3.85;100.00;99848.13;4989884;28;20045;-85
2023/02/02 02:03:33;;;;;;;8.27;2.43;;;;;;;3.89;100.00;99859.44;4978414;28;20124;-83
2023/02/02 02:06:06;;;;;;;9.57;3.17;;;;;;;3.91;100.00;99869.00;4989647;28;20045;-84
2023/02/02 02:08:54;;;;;;;13.10;3.17;;;;;;;3.92;100.00;99859.41;5013096;28;20128;-84
2023/02/02 02:11:22;;;;;;;6.93;2.00;;;;;;;3.91;100.00;99863.75;4996877;28;20079;-83
2023/02/02 02:17:07;;;;;;;9.70;3.43;;;;;;;3.97;100.00;99875.06;4996994;28;20037;-85
2023/02/02 02:26:32;;;;;;;10.13;3.27;;;;;;;3.97;100.00;99912.53;5011265;28;20132;-83
2023/02/02 02:29:21;;;;;;;5.77;2.10;;;;;;;4.04;100.00;99908.13;4995281;28;20046;-83
2023/02/02 02:32:12;;;;;;;8.77;2.07;;;;;;;4.04;100.00;99923.81;4978893;28;20100;-83
2023/02/02 02:34:53;;;;;;;5.57;2.10;;;;;;;4.10;100.00;99922.00;4979274;28;20053;-83
2023/02/02 02:37:30;;;;;;;9.83;3.30;;;;;;;4.11;100.00;99925.50;4992845;28;20045;-84
2023/02/02 02:40:05;;;;;;;10.07;2.83;;;;;;;4.06;100.00;99945.59;4994073;28;20150;-84
2023/02/02 02:42:35;;;;;;;5.77;1.90;;;;;;;4.12;100.00;99948.13;4998545;28;20046;-83
2023/02/02 02:45:03;;;;;;;11.23;2.77;;;;;;;4.11;100.00;99946.41;4975297;28;20057;-83
2023/02/02 02:47:30;;;;;;;5.90;2.27;;;;;;;4.19;100.00;99952.47;4997951;28;20053;-82
2023/02/02 02:49:57;;;;;;;8.40;2.93;;;;;;;4.21;100.00;99945.50;4984161;28;20037;-83
2023/02/02 02:52:23;;;;;;;7.30;1.67;;;;;;;4.21;100.00;99956.81;4988030;28;20068;-82
2023/02/02 02:54:54;;;;;;;7.00;2.40;;;;;;;4.22;100.00;99965.53;4987671;28;20048;-82
2023/02/02 02:57:38;;;;;;;6.70;1.90;;;;;;;4.14;100.00;99964.72;4995922;28;20038;-82
2023/02/02 03:00:32;;;;;;;10.50;2.75;;;;;;;4.21;100.00;99974.25;4989158;28;20133;-82
2023/02/02 03:03:21;;;;;;;9.50;2.27;;;;;;;4.22;100.00;99973.38;5001834;28;20050;-82
2023/02/02 03:06:03;;;;;;;6.17;2.30;;;;;;;4.22;100.00;99989.06;5003429;28;20124;-81
2023/02/02 03:08:38;;;;;;;5.77;1.90;;;;;;;4.22;100.00;99989.06;4985041;28;20099;-82
2023/02/02 03:11:07;;;;;;;4.80;1.93;;;;;;;4.25;100.00;100007.34;4979937;28;20044;-84
2023/02/02 03:13:34;;;;;;;6.93;2.60;;;;;;;4.26;100.00;99996.00;4985621;28;20041;-80
2023/02/02 03:16:01;;;;;;;3.90;2.00;;;;;;;4.22;100.00;100008.22;5001225;28;20045;-80
2023/02/02 03:18:29;;;;;;;7.30;1.97;;;;;;;4.36;100.00;100008.13;4984294;28;20041;-81
2023/02/02 03:20:56;;;;;;;8.03;1.73;;;;;;;4.34;100.00;100019.50;4977944;28;20099;-79
2023/02/02 03:23:23;;;;;;;8.97;2.40;;;;;;;4.36;100.00;100021.22;5004503;28;20029;-79
2023/02/02 03:25:49;;;;;;;5.37;1.90;;;;;;;4.31;100.00;100041.31;4971139;28;20411;-80
2023/02/02 03:28:17;;;;;;;11.30;2.00;;;;;;;4.22;100.00;100062.28;5000317;28;20045;-81
2023/02/02 03:30:45;;;;;;;7.43;2.90;;;;;;;4.26;100.00;100052.66;4982673;28;20515;-79
2023/02/02 03:33:12;;;;;;;7.13;1.90;;;;;;;4.35;100.00;100061.31;4994241;28;20055;-79
2023/02/02 03:35:39;;;;;;;4.47;1.83;;;;;;;4.34;100.00;100059.59;4982496;28;20525;-80
2023/02/02 03:38:06;;;;;;;9.00;2.33;;;;;;;4.40;100.00;100067.41;4999848;28;20095;-80
2023/02/02 03:40:33;;;;;;;6.57;1.90;;;;;;;4.43;100.00;100062.16;4999567;28;20121;-80
2023/02/02 03:43:00;;;;;;;7.93;2.40;;;;;;;4.45;100.00;100070.84;4982559;28;20045;-80
2023/02/02 03:45:27;;;;;;;4.43;1.63;;;;;;;4.43;100.00;100085.69;4979563;28;20077;-79
2023/02/02 03:47:54;;;;;;;7.03;1.90;;;;;;;4.35;100.00;100074.41;4982497;28;20674;-80
2023/02/02 03:50:21;;;;;;;4.20;2.00;;;;;;;4.46;100.00;100092.66;4980973;28;20052;-80
2023/02/02 03:52:47;;;;;;;6.60;2.90;;;;;;;4.44;100.00;100097.88;4998762;28;20049;-80
2023/02/02 03:55:14;;;;;;;3.83;1.40;;;;;;;4.39;100.00;100104.91;4969831;28;20079;-80
2023/02/02 03:57:40;;;;;;;6.07;2.00;;;;;;;4.46;100.00;100119.69;4980302;28;20048;-80
2023/02/02 04:00:08;;;;;;;7.50;2.07;;;;;;;4.44;100.00;100116.19;5002453;28;20033;-80
2023/02/02 04:02:34;;;;;;;5.93;2.57;;;;;;;4.42;100.00;100101.41;4982192;28;20489;-81
2023/02/02 04:05:01;;;;;;;4.47;1.13;;;;;;;4.38;100.00;100125.84;4983146;28;20490;-80
2023/02/02 04:07:28;;;;;;;5.57;1.93;;;;;;;4.46;100.00;100126.69;4983013;28;20053;-82
2023/02/02 04:09:55;;;;;;;6.10;1.87;;;;;;;4.41;100.00;100134.53;4982650;28;20103;-81
2023/02/02 04:12:22;;;;;;;6.77;1.43;;;;;;;4.44;100.00;100141.47;4998803;28;20495;-80
2023/02/02 04:14:49;;;;;;;7.13;1.60;;;;;;;4.44;100.00;100137.13;4997510;28;20507;-80
2023/02/02 04:17:15;;;;;;;4.40;1.40;;;;;;;4.44;100.00;100137.13;4982291;28;20045;-81
2023/02/02 04:19:42;;;;;;;5.27;1.30;;;;;;;4.40;100.00;100160.69;4999026;28;20473;-80
2023/02/02 04:22:09;;;;;;;5.70;1.73;;;;;;;4.46;100.00;100152.84;4982626;28;20053;-80
2023/02/02 04:24:36;;;;;;;8.37;1.83;;;;;;;4.40;96.65;100169.41;5001773;28;20072;-81
2023/02/02 04:27:03;;;;;;;5.40;2.17;;;;;;;4.46;98.67;100179.00;5006549;28;20543;-86
2023/02/02 04:29:30;;;;;;;5.23;1.87;;;;;;;4.45;97.97;100175.47;4998284;28;20069;-86
2023/02/02 04:31:57;;;;;;;4.93;1.47;;;;;;;4.44;98.37;100193.78;4980741;28;20598;-84
2023/02/02 04:34:24;;;;;;;2.67;1.30;;;;;;;4.49;99.76;100194.66;4965266;28;20052;-86
2023/02/02 04:36:50;;;;;;;5.07;1.70;;;;;;;4.41;99.75;100176.38;4983849;28;20073;-85
2023/02/02 04:39:17;;;;;;;3.77;1.07;;;;;;;4.45;99.20;100199.00;4980768;28;20053;-84
2023/02/02 04:41:44;;;;;;;4.73;1.43;;;;;;;4.47;99.51;100184.22;5000116;28;20563;-85
2023/02/02 04:44:14;;;;;;;6.57;1.80;;;;;;;4.43;98.54;100206.00;5000259;28;20486;-84
2023/02/02 04:46:42;;;;;;;6.60;1.70;;;;;;;4.46;100.00;100202.53;5000931;28;20046;-85
2023/02/02 04:49:10;;;;;;;4.00;1.30;;;;;;;4.43;100.00;100211.22;4984327;28;20056;-85
2023/02/02 04:51:38;;;;;;;5.03;1.93;;;;;;;4.38;100.00;100205.16;4984152;28;20502;-88
2023/02/02 04:54:06;;;;;;;4.57;1.50;;;;;;;4.41;98.60;100225.19;4983044;28;20042;-85
2023/02/02 04:56:34;;;;;;;10.00;1.77;;;;;;;4.40;99.70;100224.34;4964768;28;20128;-85
2023/02/02 04:59:01;;;;;;;3.93;1.43;;;;;;;4.36;98.35;100225.19;4964370;28;20423;-85
2023/02/02 05:01:29;;;;;;;3.27;1.40;;;;;;;4.42;97.21;100247.84;4964252;28;20049;-85
2023/02/02 05:03:56;;;;;;;3.90;1.23;;;;;;;4.48;96.72;100221.69;4980017;28;20524;-88
2023/02/02 05:06:23;;;;;;;4.70;1.57;;;;;;;4.45;96.65;100264.41;4970968;28;20048;-85
2023/02/02 05:08:50;;;;;;;7.60;1.57;;;;;;;4.48;98.10;100246.09;4979677;28;20049;-86
2023/02/02 05:11:21;;;;;;;3.77;1.67;;;;;;;4.47;93.74;100244.38;4980425;28;20042;-85
2023/02/02 05:13:50;;;;;;;6.43;1.83;;;;;;;4.51;97.52;100260.91;4981941;28;20045;-85
2023/02/02 05:16:17;;;;;;;6.70;1.50;;;;;;;4.50;96.43;100262.66;5015461;28;20060;-86
2023/02/02 05:18:55;;;;;;;4.97;1.73;;;;;;;4.49;96.43;100260.06;4983135;28;20100;-85
2023/02/02 05:21:22;;;;;;;6.60;2.03;;;;;;;4.41;96.03;100272.28;4983262;28;20051;-87
2023/02/02 05:23:48;;;;;;;5.27;1.60;;;;;;;4.45;97.72;100272.25;4998959;28;20047;-84
2023/02/02 05:26:17;;;;;;;5.67;1.57;;;;;;;4.40;97.61;100278.38;4982971;28;20038;-85
2023/02/02 05:28:44;;;;;;;7.40;1.80;;;;;;;4.38;96.81;100257.47;4998519;28;20034;-86
2023/02/02 05:31:11;;;;;;;4.43;1.47;;;;;;;4.38;96.63;100270.53;4998883;28;20044;-89
2023/02/02 05:33:38;;;;;;;7.83;2.07;;;;;;;4.35;97.32;100298.44;4995568;28;20141;-86
2023/02/02 05:36:05;;;;;;;8.10;2.13;;;;;;;4.39;98.60;100285.38;4998612;28;20045;-85
2023/02/02 05:38:32;;;;;;;6.10;2.53;;;;;;;4.36;99.90;100289.72;4998739;28;20442;-85
2023/02/02 05:40:59;;;;;;;7.10;2.17;;;;;;;4.32;99.13;100298.44;4998277;28;20053;-85
2023/02/02 05:43:28;;;;;;;8.60;1.97;;;;;;;4.33;100.00;100294.94;4989707;28;20412;-86
2023/02/02 05:45:55;;;;;;;7.33;3.00;;;;;;;4.32;100.00;100307.16;4996116;28;20056;-85
2023/02/02 05:48:21;;;;;;;4.60;1.60;;;;;;;4.24;100.00;100306.28;4978718;28;20507;-88
2023/02/02 05:51:04;;;;;;;11.03;2.33;;;;;;;4.29;100.00;100311.50;4964809;28;20487;-85
2023/02/02 05:53:31;;;;;;;6.00;1.90;;;;;;;4.24;100.00;100321.97;4981973;28;20045;-85
2023/02/02 05:55:58;;;;;;;5.37;2.00;;;;;;;4.14;100.00;100321.13;4995453;28;20053;-85
2023/02/02 05:58:25;;;;;;;7.03;2.10;;;;;;;4.13;100.00;100318.50;4996570;28;20046;-85
2023/02/02 06:00:54;;;;;;;11.47;2.50;;;;;;;4.27;100.00;100321.97;4972673;28;20042;-87
2023/02/02 06:03:22;;;;;;;12.20;2.30;;;;;;;4.33;100.00;100331.56;4977536;28;20483;-85
2023/02/02 06:05:49;;;;;;;7.83;2.00;;;;;;;4.35;100.00;100341.16;4985775;28;20037;-85
2023/02/02 06:08:16;;;;;;;6.63;2.70;;;;;;;4.26;100.00;100341.16;4977215;28;20046;-86
2023/02/02 06:10:43;;;;;;;5.83;1.83;;;;;;;4.22;100.00;100357.72;4962998;28;20065;-86
2023/02/02 06:13:10;;;;;;;7.77;1.77;;;;;;;4.23;100.00;100364.69;5011056;28;20045;-85
2023/02/02 06:15:36;;;;;;;10.47;2.27;;;;;;;4.14;100.00;100364.69;4978973;28;20057;-87
2023/02/02 06:18:05;;;;;;;5.83;2.30;;;;;;;4.23;100.00;100380.38;4975986;28;20479;-85
2023/02/02 06:20:32;;;;;;;4.77;2.30;;;;;;;4.16;100.00;100376.00;4982111;28;20128;-85
2023/02/02 06:22:59;;;;;;;11.17;3.33;;;;;;;4.09;100.00;100376.88;4982157;28;20133;-86
2023/02/02 06:25:25;;;;;;;7.50;2.90;;;;;;;4.10;100.00;100382.09;4997977;28;20121;-85
2023/02/02 06:27:59;;;;;;;11.37;2.20;;;;;;;4.15;100.00;100400.41;4982231;28;20053;-86
2023/02/02 06:30:26;;;;;;;13.63;2.10;;;;;;;4.18;100.00;100403.03;4982370;28;20045;-84
2023/02/02 06:32:53;;;;;;;14.83;3.60;;;;;;;4.06;100.00;100397.78;4998143;28;20419;-85
2023/02/02 06:35:20;;;;;;;10.50;2.27;;;;;;;4.03;100.00;100397.75;4997666;28;20045;-86
2023/02/02 06:37:47;;;;;;;10.93;2.33;;;;;;;4.07;100.00;100413.47;4997659;28;20060;-84
2023/02/02 06:40:14;;;;;;;10.13;3.27;;;;;;;4.05;100.00;100412.59;4997421;28;20042;-85
2023/02/02 06:42:41;;;;;;;9.17;2.07;;;;;;;4.08;100.00;100415.22;4998126;28;20071;-82
2023/02/02 06:45:08;;;;;;;8.37;2.37;;;;;;;4.05;100.00;100424.81;4980093;28;20037;-81
2023/02/02 06:47:35;;;;;;;8.53;1.97;;;;;;;4.03;100.00;100423.91;4980694;28;20041;-81
2023/02/02 06:50:02;;;;;;;13.07;2.63;;;;;;;4.00;100.00;100432.63;4995227;28;20038;-81
2023/02/02 06:52:29;;;;;;;8.27;2.20;;;;;;;3.94;100.00;100429.97;4992895;28;20041;-81
2023/02/02 06:54:56;;;;;;;5.53;2.00;;;;;;;3.94;100.00;100435.22;5006084;28;20080;-82
2023/02/02 06:57:22;;;;;;;8.37;2.53;;;;;;;3.93;100.00;100446.53;4999632;28;20049;-81
2023/02/02 06:59:50;;;;;;;7.87;2.17;;;;;;;3.99;100.00;100448.31;5000298;28;20674;-81
2023/02/02 07:02:16;;;;;;;9.60;2.23;;;;;;;3.97;100.00;100457.88;4984766;28;20049;-81
2023/02/02 07:04:43;;;;;;;9.27;2.63;;;;;;;4.06;100.00;100455.31;4999708;28;20099;-81
2023/02/02 07:07:10;;;;;;;7.03;2.50;;;;;;;3.97;100.00;100469.22;4998491;28;20091;-81
2023/02/02 07:09:36;;;;;;;4.73;1.97;;;;;;;3.94;100.00;100464.81;4996211;28;20045;-81
2023/02/02 07:12:03;;;;;;;21.93;3.30;;;;;;;3.94;100.00;100477.03;4996776;28;20033;-80
2023/02/02 07:14:30;;;;;;;10.63;2.20;;;;;;;3.94;100.00;100471.81;5013376;28;20056;-81
2023/02/02 07:16:56;;;;;;;11.13;3.07;;;;;;;3.77;100.00;100473.47;4995302;28;20426;-81
2023/02/02 07:19:23;;;;;;;9.90;2.30;;;;;;;3.97;100.00;100489.25;4992952;28;20046;-81
2023/02/02 07:21:50;;;;;;;9.23;2.37;;;;;;;4.01;100.00;100504.06;4979072;28;20041;-81
2023/02/02 07:24:16;;;;;;;7.93;2.07;;;;;;;4.05;100.00;100503.22;4989245;28;20430;-81
2023/02/02 07:26:43;;;;;;;9.87;2.80;;;;;;;4.03;100.00;100503.19;5013221;28;20042;-81
2023/02/02 07:29:12;;;;;;;13.70;2.87;;;;;;;4.02;100.00;100505.81;4981852;28;20056;-81
2023/02/02 07:31:39;;;;;;;5.83;2.10;;;;;;;4.04;100.00;100517.16;5013667;28;20038;-81
2023/02/02 07:34:06;;;;;;;11.13;2.27;;;;;;;4.07;100.00;100511.94;4967187;28;20419;-83
2023/02/02 07:36:33;;;;;;;9.27;2.10;;;;;;;4.12;100.00;100520.66;4994003;28;20038;-84
2023/02/02 07:39:02;;;;;;;5.47;1.90;;;;;;;4.16;100.00;100517.19;4981266;28;20041;-83
2023/02/02 07:41:29;;;;;;;12.13;3.73;;;;;;;4.17;100.00;100517.19;4982158;28;20042;-84
2023/02/02 07:43:56;;;;;;;7.83;2.87;;;;;;;4.15;100.00;100523.28;4982631;28;20041;-83
2023/02/02 07:46:24;;;;;;;7.73;2.00;;;;;;;4.17;100.00;100518.94;4981277;28;20705;-83
2023/02/02 07:48:55;;;;;;;8.80;2.27;;;;;;;4.15;100.00;100533.75;4980622;28;20061;-83
2023/02/02 07:51:22;;;;;;;7.17;2.77;;;;;;;4.17;100.00;100532.00;5007552;28;20056;-84
2023/02/02 07:53:52;;;;;;;5.57;1.93;;;;;;;4.21;100.00;100533.78;5000206;28;20100;-83
2023/02/02 07:56:21;;;;;;;10.03;2.67;;;;;;;4.24;100.00;100534.66;4992408;28;20041;-83
2023/02/02 07:58:50;;;;;;;7.03;1.80;;;;;;;4.31;100.00;100539.91;4982238;28;20120;-83
2023/02/02 08:01:19;;;;;;;8.70;3.10;;;;;;;4.34;100.00;100543.41;4981118;28;20085;-85
2023/02/02 08:03:46;;;;;;;7.63;3.23;;;;;;;4.13;100.00;100541.59;4988491;28;20029;-84
2023/02/02 08:06:23;;;;;;;13.70;2.63;;;;;;;4.23;100.00;100545.13;4995855;28;20033;-83
2023/02/02 08:08:50;;;;;;;16.27;3.57;;;;;;;4.24;98.08;100542.50;4979994;28;20049;-85
2023/02/02 08:11:19;;;;;;;8.93;2.37;;;;;;;4.17;98.69;100551.19;4998534;28;20091;-81
2023/02/02 08:13:51;;;;;;;11.03;2.70;;;;;;;4.12;99.20;100567.72;4978643;28;20045;-81
2023/02/02 08:16:18;;;;;;;8.07;2.83;;;;;;;4.21;97.89;100568.66;4991805;28;20120;-82
2023/02/02 08:18:45;;;;;;;7.00;2.30;;;;;;;4.23;96.46;100571.25;5009823;28;20051;-82
2023/02/02 08:21:12;;;;;;;7.97;2.13;;;;;;;4.26;97.01;100565.16;5068593;23;20053;-81
2023/02/02 08:23:40;;;;;;;8.43;2.50;;;;;;;4.25;95.30;100579.97;5008754;28;20050;-83
2023/02/02 08:26:15;;;;;;;8.37;1.83;;;;;;;4.33;97.57;100590.47;5009580;28;20372;-80
2023/02/02 08:28:43;;;;;;;8.30;2.40;;;;;;;4.46;94.91;100582.69;5003817;28;20034;-81
2023/02/02 08:31:17;;;;;;;10.97;2.40;;;;;;;4.46;94.93;100587.91;4999227;28;20029;-82
2023/02/02 08:33:44;;;;;;;8.02;2.35;;;;;;;4.42;94.71;100594.00;5008494;28;20034;-82
2023/02/02 08:36:12;;;;;;;6.53;2.30;;;;;;;4.41;94.91;100594.88;5001564;28;20037;-81
2023/02/02 08:38:39;;;;;;;8.93;2.40;;;;;;;4.35;93.01;100594.84;5013952;28;20430;-81
2023/02/02 08:41:11;;;;;;;6.23;2.37;;;;;;;4.35;95.40;100601.81;4989919;28;20045;-81
2023/02/02 08:43:39;;;;;;;10.17;2.47;;;;;;;4.42;90.97;100603.59;5015764;28;20465;-82
2023/02/02 08:46:07;;;;;;;9.60;2.17;;;;;;;4.45;90.94;100604.44;5015865;28;20053;-82
2023/02/02 08:48:34;;;;;;;12.43;2.63;;;;;;;4.53;94.74;100613.22;4985263;28;20049;-80
2023/02/02 08:51:02;;;;;;;9.67;2.90;;;;;;;4.65;92.91;100619.38;4979863;28;20038;-82
2023/02/02 08:53:29;;;;;;;7.07;2.67;;;;;;;4.64;91.96;100626.34;4980268;28;20133;-80
2023/02/02 08:55:59;;;;;;;8.43;2.17;;;;;;;4.69;93.86;100627.22;4991444;28;20405;-80
2023/02/02 08:58:27;;;;;;;7.10;2.10;;;;;;;4.82;93.80;100629.88;5005944;28;20410;-81
2023/02/02 09:00:53;;;;;;;6.50;2.30;;;;;;;4.80;93.35;100632.50;4998409;28;20037;-82
2023/02/02 09:03:20;;;;;;;7.60;2.30;;;;;;;4.80;93.17;100632.50;4991847;28;20041;-80
2023/02/02 09:05:47;;;;;;;9.53;2.30;;;;;;;4.86;95.69;100622.03;5006686;28;20044;-80
2023/02/02 09:08:13;;;;;;;11.13;2.30;;;;;;;4.86;94.57;100639.47;4995842;28;20057;-80
2023/02/02 09:10:40;;;;;;;9.70;2.20;;;;;;;4.81;94.28;100634.25;4991602;28;20038;-80
2023/02/02 09:13:07;;;;;;;11.30;3.47;;;;;;;4.65;94.55;100635.06;4997711;28;20041;-81
2023/02/02 09:15:34;;;;;;;8.17;3.23;;;;;;;4.66;94.99;100639.44;4989517;28;20057;-80
2023/02/02 09:18:00;;;;;;;13.03;2.40;;;;;;;4.70;97.24;100649.00;4990556;28;20360;-79
2023/02/02 09:20:27;;;;;;;14.93;3.50;;;;;;;4.66;96.37;100647.28;4982065;28;20041;-78
2023/02/02 09:22:55;;;;;;;8.10;3.23;;;;;;;4.79;97.60;100649.94;4997105;28;20067;-78
2023/02/02 09:25:24;;;;;;;6.80;2.33;;;;;;;4.87;95.88;100649.94;5011158;28;20394;-78
2023/02/02 09:27:51;;;;;;;11.27;3.80;;;;;;;4.88;96.04;100654.34;4976766;28;20048;-78
2023/02/02 09:30:18;;;;;;;10.07;2.13;;;;;;;5.03;96.37;100656.09;5023996;28;20038;-79
2023/02/02 09:32:47;;;;;;;6.83;2.00;;;;;;;5.08;98.19;100668.31;4993650;28;20498;-79
2023/02/02 09:35:14;;;;;;;8.37;1.97;;;;;;;5.02;96.48;100657.84;4994050;28;20030;-79
2023/02/02 09:37:43;;;;;;;9.13;2.33;;;;;;;5.22;96.49;100667.50;5000499;28;20510;-77
2023/02/02 09:40:17;;;;;;;6.67;2.00;;;;;;;5.31;95.57;100667.50;5010572;28;20047;-77
2023/02/02 09:42:54;;;;;;;10.07;2.23;;;;;;;5.20;88.91;100669.22;4999017;28;20631;-77
2023/02/02 09:45:24;;;;;;;7.13;2.27;;;;;;;5.25;87.80;100667.47;5022314;28;20061;-79
2023/02/02 09:47:58;;;;;;;8.77;3.17;;;;;;;5.25;88.55;100670.09;5028854;28;20099;-78
2023/02/02 09:51:00;;;;;;;6.68;2.22;;;;;;;5.28;88.17;100677.97;4992630;28;20137;-79
2023/02/02 09:53:43;;;;;;;8.03;3.47;;;;;;;5.29;90.03;100693.66;4978690;28;20474;-80
2023/02/02 09:56:42;;;;;;;7.65;1.73;;;;;;;5.26;86.60;100696.28;5001822;28;20041;-82
2023/02/02 09:59:17;;;;;;;6.23;1.60;;;;;;;5.25;89.38;100696.31;4977723;28;20048;-82
2023/02/02 10:01:55;;;;;;;5.50;1.90;;;;;;;5.30;89.25;100707.66;4994880;28;20160;-82
2023/02/02 10:04:30;;;;;;;11.70;2.13;;;;;;;5.19;89.62;100701.50;4995166;28;20491;-82
2023/02/02 10:07:00;;;;;;;6.70;2.10;;;;;;;5.30;90.75;100705.91;4997709;28;20048;-80
2023/02/02 10:09:56;;;;;;;7.50;1.87;;;;;;;5.29;89.59;100705.91;5002328;28;20601;-80
2023/02/02 10:12:35;;;;;;;7.60;2.67;;;;;;;5.22;89.12;100714.63;4991423;28;20108;-81
2023/02/02 10:15:19;;;;;;;6.53;2.53;;;;;;;5.20;89.88;100713.72;5002964;28;20135;-82
2023/02/02 10:17:51;;;;;;;8.20;2.60;;;;;;;5.11;91.26;100716.34;4974090;28;20033;-81
2023/02/02 10:20:36;;;;;;;7.03;1.70;;;;;;;5.17;90.03;100718.97;5002103;28;20033;-81
2023/02/02 10:23:14;;;;;;;6.87;1.73;;;;;;;5.10;94.85;100736.41;5007062;28;20543;-82
2023/02/02 10:26:06;;;;;;;7.93;2.60;;;;;;;4.85;100.00;100763.38;5001245;28;20056;-82
2023/02/02 10:28:44;;;;;;;4.20;1.97;;;;;;;4.37;100.00;100767.47;5006956;28;20552;-82
2023/02/02 10:31:42;;;;;;;7.23;2.10;;;;;;;4.39;100.00;100760.53;5002833;28;20029;-82
2023/02/02 10:34:22;;;;;;;5.13;1.77;;;;;;;4.29;100.00;100777.00;5016766;28;20099;-81
2023/02/02 10:37:04;;;;;;;7.30;2.53;;;;;;;4.04;100.00;100783.81;4986692;28;20486;-81
2023/02/02 10:40:03;;;;;;;4.70;1.50;;;;;;;3.95;100.00;100781.97;5013613;28;20072;-83
2023/02/02 10:45:42;;;;;;;5.17;1.80;;;;;;;3.55;100.00;100789.47;5019486;28;20048;-80
2023/02/02 10:48:18;;;;;;;5.13;1.60;;;;;;;3.71;100.00;100806.16;5009970;28;20091;-81
2023/02/02 10:50:48;;;;;;;4.93;1.93;;;;;;;3.65;100.00;100809.59;4978756;28;20087;-81
2023/02/02 10:53:16;;;;;;;6.53;2.00;;;;;;;3.69;100.00;100815.69;4988062;28;20045;-81
2023/02/02 10:55:52;;;;;;;4.43;1.83;;;;;;;3.51;100.00;100810.28;5008189;28;20045;-81
2023/02/02 10:58:45;;;;;;;8.77;2.43;;;;;;;3.44;100.00;100819.78;4997094;28;20041;-82
2023/02/02 11:01:16;;;;;;;5.93;2.37;;;;;;;3.09;100.00;100820.25;5016675;28;20037;-81
2023/02/02 11:03:43;;;;;;;6.37;2.77;;;;;;;3.30;100.00;100829.22;5016855;28;20049;-80
2023/02/02 11:08:59;;;;;;;6.50;2.37;;;;;;;3.68;100.00;100847.94;5035195;28;20045;-81
2023/02/02 11:11:27;;;;;;;7.43;2.50;;;;;;;3.59;100.00;100845.22;5000086;28;20044;-82
2023/02/02 11:13:59;;;;;;;6.07;2.37;;;;;;;3.59;100.00;100851.31;4984207;28;20258;-81
2023/02/02 11:16:28;;;;;;;7.83;2.97;;;;;;;3.89;100.00;100847.28;5009171;28;20038;-81
2023/02/02 11:19:20;;;;;;;6.43;2.23;;;;;;;3.93;100.00;100857.75;5021460;28;20132;-82
2023/02/02 11:21:52;;;;;;;5.43;2.20;;;;;;;4.22;100.00;100852.81;4997808;28;20033;-81
2023/02/02 11:24:26;;;;;;;3.47;1.97;;;;;;;4.46;100.00;100857.38;4999505;28;20056;-82
2023/02/02 11:27:00;;;;;;;7.70;3.40;;;;;;;4.69;100.00;100867.09;5004707;28;20128;-82
2023/02/02 11:29:41;;;;;;;3.53;1.70;;;;;;;4.88;100.00;100869.00;4976444;28;20645;-82
2023/02/02 11:32:29;;;;;;;6.13;2.10;;;;;;;5.05;100.00;100867.34;4990968;28;20144;-82
2023/02/02 11:35:12;;;;;;;4.57;2.50;;;;;;;5.27;100.00;100870.06;4999398;28;20037;-82
2023/02/02 11:37:57;;;;;;;4.90;1.77;;;;;;;5.25;100.00;100871.78;5015125;28;20068;-81
2023/02/02 11:40:44;;;;;;;3.87;1.87;;;;;;;5.48;100.00;100866.66;4991854;28;20038;-82
2023/02/02 11:43:47;;;;;;;5.33;2.33;;;;;;;5.77;100.00;100871.97;4972176;28;20498;-82
2023/02/02 11:46:17;;;;;;;7.03;3.07;;;;;;;6.08;100.00;100872.94;4954867;28;20054;-82
2023/02/02 11:49:07;;;;;;;4.37;2.00;;;;;;;5.99;95.42;100871.19;5014533;28;20060;-80
2023/02/02 11:51:34;;;;;;;4.43;1.40;;;;;;;6.21;91.91;100878.19;5015119;28;20041;-80
2023/02/02 11:54:06;;;;;;;3.87;1.37;;;;;;;5.96;91.23;100883.41;4984446;28;20065;-82
2023/02/02 11:56:35;;;;;;;4.73;1.50;;;;;;;5.45;91.43;100898.94;4999081;28;20111;-83
2023/02/02 11:59:02;;;;;;;3.63;1.60;;;;;;;5.29;94.38;100910.22;4981469;28;20049;-83
2023/02/02 12:01:34;;;;;;;4.87;1.70;;;;;;;4.78;89.80;100907.28;4994362;28;20038;-82